createdAt,value
2023-04-26T00:00:31.756Z,101873.63
2023-04-26T00:03:02.337Z,101866.78
2023-04-26T00:05:32.480Z,101859.94
2023-04-26T00:08:01.963Z,101874.56
2023-04-26T00:10:31.024Z,101836.06
2023-04-26T00:13:00.223Z,101869.47
2023-04-26T00:15:29.543Z,101872.91
2023-04-26T00:17:58.751Z,101870.31
2023-04-26T00:20:30.210Z,101773.59
2023-04-26T00:22:59.310Z,101862.66
2023-04-26T00:25:28.384Z,101854.06
2023-04-26T00:27:57.434Z,101854.94
2023-04-26T00:30:26.644Z,101864.47
2023-04-26T00:32:55.636Z,101870.34
2023-04-26T00:35:25.033Z,101869.44
2023-04-26T00:37:57.793Z,101872.88
2023-04-26T00:40:27.117Z,101869.44
2023-04-26T00:42:59.470Z,101863.47
2023-04-26T00:45:28.741Z,101864.22
2023-04-26T00:47:57.952Z,101722.94
2023-04-26T00:50:27.423Z,101860.78
2023-04-26T00:52:58.871Z,101864.34
2023-04-26T00:55:28.421Z,101859.25
2023-04-26T00:57:57.948Z,101861.88
2023-04-26T01:00:27.798Z,101864.47
2023-04-26T01:02:57.164Z,101861.06
2023-04-26T01:05:26.473Z,101860.25
2023-04-26T01:07:55.967Z,101861.06
2023-04-26T01:10:28.307Z,101866.19
2023-04-26T01:13:03.192Z,101860.16
2023-04-26T01:15:33.640Z,101858.47
2023-04-26T01:18:03.579Z,101855.91
2023-04-26T01:20:32.725Z,101855.06
2023-04-26T01:23:06.268Z,101837.13
2023-04-26T01:25:35.925Z,101831.09
2023-04-26T01:28:07.396Z,101856.78
2023-04-26T01:30:38.728Z,101701.91
2023-04-26T01:38:02.670Z,101828.59
2023-04-26T01:40:34.418Z,101887.78
2023-04-26T01:43:04.568Z,101744.78
2023-04-26T01:45:34.295Z,101864.63
2023-04-26T01:48:22.627Z,101853.47
2023-04-26T01:50:51.817Z,101859.44
2023-04-26T01:53:22.183Z,101850.81
2023-04-26T01:55:55.635Z,101852.59
2023-04-26T01:58:25.370Z,101859.44
2023-04-26T02:00:55.640Z,101860.28
2023-04-26T02:03:25.428Z,101850.84
2023-04-26T02:05:54.297Z,101863.78
2023-04-26T02:08:23.006Z,101860.38
2023-04-26T02:10:53.436Z,101848.28
2023-04-26T02:13:22.669Z,101855.97
2023-04-26T02:15:54.025Z,101853.41
2023-04-26T02:18:22.896Z,101857.78
2023-04-26T02:25:58.077Z,101829.63
2023-04-26T02:28:26.950Z,101861.28
2023-04-26T02:30:58.558Z,101857.72
2023-04-26T02:33:29.609Z,101856.09
2023-04-26T02:35:59.263Z,101856.09
2023-04-26T02:38:28.202Z,101842.38
2023-04-26T02:41:01.029Z,101852.63
2023-04-26T02:43:30.218Z,101854.41
2023-04-26T02:46:01.250Z,101850.13
2023-04-26T02:48:33.143Z,101854.38
2023-04-26T02:51:02.761Z,101851.78
2023-04-26T02:53:33.722Z,101850.03
2023-04-26T02:56:07.284Z,101836.38
2023-04-26T02:58:36.212Z,101848.31
2023-04-26T03:01:05.984Z,101844.94
2023-04-26T03:03:35.254Z,101833.88
2023-04-26T03:06:04.528Z,101848.44
2023-04-26T03:08:35.109Z,101851.81
2023-04-26T03:11:04.790Z,101844.16
2023-04-26T03:13:40.917Z,101847.66
2023-04-26T03:16:11.161Z,101852.81
2023-04-26T03:18:43.279Z,101834.75
2023-04-26T03:21:13.203Z,101847.59
2023-04-26T03:23:42.516Z,101848.47
2023-04-26T03:26:12.658Z,101726.88
2023-04-26T03:28:43.338Z,101850.19
2023-04-26T03:31:12.615Z,101841.63
2023-04-26T03:33:42.791Z,101836.38
2023-04-26T03:36:12.702Z,101835.56
2023-04-26T03:38:42.919Z,101837.19
2023-04-26T03:41:15.703Z,101842.41
2023-04-26T03:43:45.930Z,101845.91
2023-04-26T03:46:15.032Z,101841.59
2023-04-26T03:48:43.786Z,101834.72
2023-04-26T03:51:12.834Z,101837.22
2023-04-26T03:53:42.612Z,101830.47
2023-04-26T03:56:13.784Z,101829.53
2023-04-26T03:58:43.047Z,101828.72
2023-04-26T04:01:15.770Z,101825.31
2023-04-26T04:03:44.929Z,101815.88
2023-04-26T04:06:19.449Z,101827.94
2023-04-26T04:08:48.151Z,101828.75
2023-04-26T04:11:17.653Z,101835.69
2023-04-26T04:13:47.359Z,101837.38
2023-04-26T04:16:18.588Z,101833.97
2023-04-26T04:18:47.564Z,101816.00
2023-04-26T04:21:16.592Z,101835.72
2023-04-26T04:23:45.848Z,101836.63
2023-04-26T04:26:15.241Z,101835.78
2023-04-26T04:28:45.150Z,101838.34
2023-04-26T04:31:14.046Z,101846.06
2023-04-26T04:33:44.512Z,101842.66
2023-04-26T04:36:17.941Z,101835.75
2023-04-26T04:38:48.046Z,101852.06
2023-04-26T04:41:20.365Z,101851.16
2023-04-26T04:43:49.228Z,101844.25
2023-04-26T04:46:18.033Z,101839.94
2023-04-26T04:48:48.632Z,101843.34
2023-04-26T04:51:17.470Z,101848.44
2023-04-26T04:53:49.574Z,101856.91
2023-04-26T04:56:19.580Z,101846.34
2023-04-26T04:58:48.380Z,101857.47
2023-04-26T05:01:20.381Z,101855.75
2023-04-26T05:03:54.896Z,101888.47
2023-04-26T05:06:24.576Z,101861.78
2023-04-26T05:08:53.305Z,101856.66
2023-04-26T05:11:22.603Z,101840.56
2023-04-26T05:13:52.826Z,101852.59
2023-04-26T05:16:22.723Z,101844.88
2023-04-26T05:18:51.639Z,101851.75
2023-04-26T05:21:23.330Z,101852.66
2023-04-26T05:23:53.538Z,101841.44
2023-04-26T05:26:22.662Z,101850.94
2023-04-26T05:29:16.908Z,101848.31
2023-04-26T05:31:48.807Z,101853.34
2023-04-26T05:34:56.498Z,101843.94
2023-04-26T05:37:26.863Z,101845.66
2023-04-26T05:39:57.074Z,101840.47
2023-04-26T05:42:26.188Z,101842.16
2023-04-26T05:44:58.637Z,101842.13
2023-04-26T05:47:27.968Z,101852.41
2023-04-26T05:49:57.582Z,101855.81
2023-04-26T05:52:28.613Z,101858.38
2023-04-26T05:54:57.548Z,101856.59
2023-04-26T05:57:27.855Z,101859.13
2023-04-26T05:59:56.910Z,101850.47
2023-04-26T06:02:26.925Z,101852.16
2023-04-26T06:04:56.268Z,101867.53
2023-04-26T06:07:29.780Z,101860.59
2023-04-26T06:09:58.799Z,101857.13
2023-04-26T06:12:30.316Z,101866.56
2023-04-26T06:15:01.241Z,101867.34
2023-04-26T06:17:34.055Z,101869.09
2023-04-26T06:20:03.166Z,101875.03
2023-04-26T06:22:35.503Z,101881.03
2023-04-26T06:25:05.026Z,101870.56
2023-04-26T06:27:35.236Z,101884.22
2023-04-26T06:30:04.607Z,101849.88
2023-04-26T06:32:36.471Z,101878.13
2023-04-26T06:35:06.648Z,101883.13
2023-04-26T06:37:37.317Z,101890.00
2023-04-26T06:40:07.346Z,101798.44
2023-04-26T06:42:38.252Z,101886.34
2023-04-26T06:45:21.104Z,101881.69
2023-04-26T06:47:52.411Z,101868.81
2023-04-26T06:50:21.675Z,101879.81
2023-04-26T06:52:51.751Z,101884.91
2023-04-26T06:55:20.746Z,101885.75
2023-04-26T06:57:49.403Z,101750.06
2023-04-26T07:00:19.116Z,101878.81
2023-04-26T07:02:47.977Z,101883.97
2023-04-26T07:05:16.895Z,101882.97
2023-04-26T07:07:45.718Z,101875.94
2023-04-26T07:10:18.476Z,101878.41
2023-04-26T07:12:47.174Z,101880.66
2023-04-26T07:15:15.761Z,101873.75
2023-04-26T07:17:45.456Z,101880.59
2023-04-26T07:20:15.720Z,101879.50
2023-04-26T07:22:44.471Z,101880.84
2023-04-26T07:25:15.932Z,101880.25
2023-04-26T07:27:46.044Z,101882.91
2023-04-26T07:30:15.082Z,101893.03
2023-04-26T07:32:43.769Z,101885.91
2023-04-26T07:35:16.400Z,101893.50
2023-04-26T07:37:45.507Z,101893.41
2023-04-26T07:40:15.320Z,101886.97
2023-04-26T07:42:45.725Z,101878.09
2023-04-26T07:45:17.030Z,101889.06
2023-04-26T07:47:47.904Z,101888.91
2023-04-26T07:50:16.792Z,101897.69
2023-04-26T07:52:45.457Z,101896.06
2023-04-26T07:55:14.950Z,101884.22
2023-04-26T07:57:46.757Z,101897.63
2023-04-26T08:00:18.978Z,101894.28
2023-04-26T08:02:53.322Z,101897.09
2023-04-26T08:05:22.945Z,101901.44
2023-04-26T08:07:54.121Z,101896.47
2023-04-26T08:10:25.315Z,101896.69
2023-04-26T08:12:57.368Z,101897.91
2023-04-26T08:15:26.188Z,101867.78
2023-04-26T08:17:54.817Z,101906.53
2023-04-26T08:20:23.826Z,101906.38
2023-04-26T08:22:56.916Z,101908.19
2023-04-26T08:25:26.132Z,101907.41
2023-04-26T08:27:58.733Z,101910.69
2023-04-26T08:30:27.632Z,101914.13
2023-04-26T08:32:56.661Z,101904.22
2023-04-26T08:35:25.385Z,101879.50
2023-04-26T08:37:56.443Z,101907.97
2023-04-26T08:40:26.247Z,101901.88
2023-04-26T08:42:54.997Z,101898.31
2023-04-26T08:45:26.091Z,101898.50
2023-04-26T08:47:58.692Z,101898.13
2023-04-26T08:50:33.594Z,101903.50
2023-04-26T08:53:02.658Z,101900.78
2023-04-26T08:55:35.025Z,101839.00
2023-04-26T08:58:04.812Z,101901.16
2023-04-26T09:00:35.575Z,101892.72
2023-04-26T09:03:04.671Z,101906.34
2023-04-26T09:05:35.464Z,101897.34
2023-04-26T09:08:07.957Z,101896.41
2023-04-26T09:10:36.718Z,101900.81
2023-04-26T09:13:05.985Z,101904.84
2023-04-26T09:15:36.375Z,101901.53
2023-04-26T09:18:20.582Z,101907.19
2023-04-26T09:21:06.048Z,101883.91
2023-04-26T09:23:35.684Z,101891.72
2023-04-26T09:26:17.878Z,101914.13
2023-04-26T09:28:47.652Z,101902.16
2023-04-26T09:31:38.935Z,101892.41
2023-04-26T09:34:08.797Z,101900.34
2023-04-26T09:36:51.294Z,101896.25
2023-04-26T09:39:32.878Z,101898.72
2023-04-26T09:42:02.042Z,101905.47
2023-04-26T09:44:33.606Z,101903.09
2023-04-26T09:47:06.161Z,101899.41
2023-04-26T09:49:45.394Z,101891.72
2023-04-26T09:52:14.552Z,101897.66
2023-04-26T09:54:48.376Z,101874.03
2023-04-26T09:57:18.179Z,101889.63
2023-04-26T09:59:48.228Z,101890.47
2023-04-26T10:02:21.038Z,101804.47
2023-04-26T10:04:51.535Z,101879.44
2023-04-26T10:07:21.462Z,101888.63
2023-04-26T10:09:51.130Z,101790.59
2023-04-26T10:12:22.108Z,101888.72
2023-04-26T10:14:50.886Z,101880.28
2023-04-26T10:17:23.445Z,101891.53
2023-04-26T10:19:56.555Z,101898.91
2023-04-26T10:22:33.628Z,101891.91
2023-04-26T10:25:02.606Z,101890.97
2023-04-26T10:27:51.145Z,101888.75
2023-04-26T10:30:24.703Z,101886.97
2023-04-26T10:33:19.045Z,101881.75
2023-04-26T10:36:11.061Z,101875.13
2023-04-26T10:38:41.695Z,101885.19
2023-04-26T10:41:33.128Z,101907.94
2023-04-26T10:48:57.392Z,101868.69
2023-04-26T10:51:27.281Z,101845.06
2023-04-26T10:54:04.123Z,101855.63
2023-04-26T10:56:52.382Z,101872.56
2023-04-26T10:59:39.894Z,101862.47
2023-04-26T11:02:12.125Z,101869.38
2023-04-26T11:04:54.910Z,101859.50
2023-04-26T11:07:38.411Z,101872.63
2023-04-26T11:10:10.904Z,101867.44
2023-04-26T11:12:43.392Z,101864.19
2023-04-26T11:15:14.325Z,101862.19
2023-04-26T11:17:43.600Z,101863.53
2023-04-26T11:20:17.608Z,101850.28
2023-04-26T11:22:46.568Z,101868.47
2023-04-26T11:25:16.253Z,101860.00
2023-04-26T11:27:45.032Z,101855.03
2023-04-26T11:30:14.529Z,101860.19
2023-04-26T11:32:47.366Z,101854.72
2023-04-26T11:35:17.557Z,101849.00
2023-04-26T11:37:47.001Z,101860.19
2023-04-26T11:40:21.755Z,101860.59
2023-04-26T11:42:50.458Z,101845.88
2023-04-26T11:45:19.183Z,101837.75
2023-04-26T11:47:51.640Z,101846.56
2023-04-26T11:50:26.733Z,101851.13
2023-04-26T11:52:57.036Z,101716.97
2023-04-26T11:55:28.571Z,101857.69
2023-04-26T11:57:58.427Z,101828.56
2023-04-26T12:00:27.986Z,101842.16
2023-04-26T12:02:57.593Z,101842.78
2023-04-26T12:09:57.703Z,101815.38
2023-04-26T12:12:27.377Z,101845.41
2023-04-26T12:14:56.205Z,101830.25
2023-04-26T12:17:29.620Z,101849.66
2023-04-26T12:19:58.826Z,101853.50
2023-04-26T12:22:27.946Z,101825.03
2023-04-26T12:25:08.263Z,101843.78
2023-04-26T12:27:37.678Z,101726.84
2023-04-26T12:30:08.588Z,101861.44
2023-04-26T12:32:38.062Z,101848.13
2023-04-26T12:35:08.175Z,101862.34
2023-04-26T12:37:37.900Z,101856.25
2023-04-26T12:40:10.505Z,101862.75
2023-04-26T12:42:39.780Z,101858.38
2023-04-26T12:45:09.797Z,101852.13
2023-04-26T12:47:39.076Z,101852.22
2023-04-26T12:50:12.833Z,101784.25
2023-04-26T12:52:46.030Z,101853.78
2023-04-26T12:55:17.133Z,101842.38
2023-04-26T12:57:47.995Z,101851.59
2023-04-26T13:00:18.210Z,101854.38
2023-04-26T13:02:47.541Z,101848.56
2023-04-26T13:05:18.794Z,101849.19
2023-04-26T13:07:48.107Z,101852.97
2023-04-26T13:10:18.726Z,101841.66
2023-04-26T13:12:47.518Z,101851.81
2023-04-26T13:16:41.824Z,101849.63
2023-04-26T13:19:42.915Z,101853.69
2023-04-26T13:22:13.600Z,101861.31
2023-04-26T13:24:45.162Z,101860.66
2023-04-26T13:27:18.684Z,101862.34
2023-04-26T13:29:47.673Z,101865.00
2023-04-26T13:32:17.723Z,101861.16
2023-04-26T13:34:47.864Z,101857.53
2023-04-26T13:37:20.305Z,101850.00
2023-04-26T13:39:49.523Z,101843.66
2023-04-26T13:42:19.928Z,101851.22
2023-04-26T13:44:49.089Z,101852.41
2023-04-26T13:47:20.834Z,101852.41
2023-04-26T13:49:49.755Z,101855.66
2023-04-26T13:52:19.749Z,101833.03
2023-04-26T13:54:49.179Z,101859.63
2023-04-26T13:57:19.620Z,101824.34
2023-04-26T13:59:49.474Z,101848.66
2023-04-26T14:02:18.346Z,101855.78
2023-04-26T14:04:47.500Z,101860.38
2023-04-26T14:07:17.193Z,101852.34
2023-04-26T14:09:48.209Z,101855.19
2023-04-26T14:12:17.064Z,101853.59
2023-04-26T14:14:49.595Z,101832.59
2023-04-26T14:17:18.673Z,101855.41
2023-04-26T14:19:47.336Z,101762.38
2023-04-26T14:22:17.774Z,101857.19
2023-04-26T14:24:46.781Z,101859.94
2023-04-26T14:27:15.646Z,101852.06
2023-04-26T14:29:44.612Z,101847.16
2023-04-26T14:32:15.174Z,101848.81
2023-04-26T14:34:44.127Z,101868.56
2023-04-26T14:37:13.077Z,101858.66
2023-04-26T14:39:44.231Z,101877.06
2023-04-26T14:42:15.139Z,101860.59
2023-04-26T14:44:45.605Z,101858.28
2023-04-26T14:47:15.702Z,101848.34
2023-04-26T14:49:44.414Z,101854.66
2023-04-26T14:52:13.142Z,101854.19
2023-04-26T14:54:42.596Z,101848.59
2023-04-26T14:57:13.399Z,101854.56
2023-04-26T14:59:42.539Z,101858.88
2023-04-26T15:02:11.269Z,101855.34
2023-04-26T15:04:41.586Z,101863.91
2023-04-26T15:07:17.992Z,101856.84
2023-04-26T15:09:59.714Z,101856.44
2023-04-26T15:12:28.608Z,101850.31
2023-04-26T15:14:59.412Z,101865.84
2023-04-26T15:17:29.354Z,101859.78
2023-04-26T15:20:01.949Z,101860.91
2023-04-26T15:22:31.326Z,101857.66
2023-04-26T15:25:00.174Z,101856.28
2023-04-26T15:27:28.964Z,101852.59
2023-04-26T15:30:00.282Z,101852.94
2023-04-26T15:32:32.400Z,101851.53
2023-04-26T15:35:02.795Z,101851.34
2023-04-26T15:37:31.635Z,101848.53
2023-04-26T15:40:00.414Z,101849.47
2023-04-26T15:42:34.056Z,101854.97
2023-04-26T15:45:02.832Z,101850.75
2023-04-26T15:47:31.654Z,101849.94
2023-04-26T15:50:04.784Z,101852.63
2023-04-26T15:52:38.830Z,101845.84
2023-04-26T15:55:08.600Z,101747.66
2023-04-26T15:57:37.732Z,101850.63
2023-04-26T16:00:09.745Z,101859.44
2023-04-26T16:02:38.615Z,101856.31
2023-04-26T16:05:09.529Z,101763.72
2023-04-26T16:07:39.099Z,101855.47
2023-04-26T16:10:11.701Z,101858.38
2023-04-26T16:12:41.799Z,101863.41
2023-04-26T16:15:11.738Z,101865.94
2023-04-26T16:17:40.529Z,101859.91
2023-04-26T16:20:11.780Z,101766.19
2023-04-26T16:22:40.533Z,101864.41
2023-04-26T16:25:13.078Z,101858.88
2023-04-26T16:27:41.815Z,101859.97
2023-04-26T16:30:11.319Z,101855.63
2023-04-26T16:32:40.296Z,101855.16
2023-04-26T16:35:11.229Z,101857.13
2023-04-26T16:37:44.360Z,101853.25
2023-04-26T16:40:14.130Z,101852.50
2023-04-26T16:42:43.521Z,101854.75
2023-04-26T16:45:16.123Z,101835.78
2023-04-26T16:47:47.952Z,101855.25
2023-04-26T16:50:18.325Z,101840.50
2023-04-26T16:52:47.114Z,101847.78
2023-04-26T16:55:18.734Z,101845.06
2023-04-26T17:02:40.516Z,101855.78
2023-04-26T17:05:10.907Z,101860.19
2023-04-26T17:07:41.484Z,101871.66
2023-04-26T17:10:11.044Z,101867.63
2023-04-26T17:12:42.010Z,101866.22
2023-04-26T17:15:13.163Z,101881.56
2023-04-26T17:17:42.148Z,101872.94
2023-04-26T17:20:13.617Z,101880.84
2023-04-26T17:22:44.065Z,101878.00
2023-04-26T17:25:13.186Z,101878.44
2023-04-26T17:27:42.119Z,101873.59
2023-04-26T17:30:11.720Z,101878.78
2023-04-26T17:32:40.615Z,101882.41
2023-04-26T17:35:10.041Z,101882.69
2023-04-26T17:37:42.406Z,101856.88
2023-04-26T17:40:13.320Z,101882.28
2023-04-26T17:42:44.282Z,101887.06
2023-04-26T17:45:14.221Z,101783.53
2023-04-26T17:47:44.928Z,101890.31
2023-04-26T17:50:16.576Z,101885.38
2023-04-26T17:52:45.933Z,101777.44
2023-04-26T17:55:16.287Z,101898.69
2023-04-26T17:57:45.001Z,101881.47
2023-04-26T18:00:14.990Z,101902.28
2023-04-26T18:02:44.668Z,101894.78
2023-04-26T18:05:13.530Z,101909.31
2023-04-26T18:07:42.243Z,101917.19
2023-04-26T18:10:11.640Z,101905.78
2023-04-26T18:12:41.858Z,101914.38
2023-04-26T18:15:10.973Z,101913.38
2023-04-26T18:17:39.690Z,101915.34
2023-04-26T18:20:09.560Z,101909.69
2023-04-26T18:22:38.279Z,101896.91
2023-04-26T18:25:10.126Z,101911.44
2023-04-26T18:27:38.904Z,101912.72
2023-04-26T18:30:12.841Z,101908.31
2023-04-26T18:32:44.008Z,101918.38
2023-04-26T18:35:15.220Z,101917.00
2023-04-26T18:37:44.093Z,101920.59
2023-04-26T18:40:13.685Z,101924.50
2023-04-26T18:42:45.249Z,101917.66
2023-04-26T18:45:15.860Z,101922.03
2023-04-26T18:47:44.740Z,101917.00
2023-04-26T18:50:13.909Z,101921.16
2023-04-26T18:52:42.632Z,101920.25
2023-04-26T18:55:11.338Z,101928.59
2023-04-26T18:57:40.680Z,101916.16
2023-04-26T19:00:10.754Z,101935.03
2023-04-26T19:02:44.073Z,101925.59
2023-04-26T19:05:14.141Z,101926.16
2023-04-26T19:07:43.166Z,101922.72
2023-04-26T19:10:12.469Z,101933.00
2023-04-26T19:12:43.629Z,101933.94
2023-04-26T19:15:13.359Z,101934.66
2023-04-26T19:17:43.665Z,101935.47
2023-04-26T19:20:13.994Z,101930.53
2023-04-26T19:22:44.667Z,101940.06
2023-04-26T19:25:14.331Z,101942.59
2023-04-26T19:27:43.411Z,101952.22
2023-04-26T19:30:13.507Z,101949.59
2023-04-26T19:32:44.381Z,101951.28
2023-04-26T19:35:13.247Z,101948.63
2023-04-26T19:37:42.166Z,101945.25
2023-04-26T19:40:12.064Z,101946.13
2023-04-26T19:42:41.107Z,101951.50
2023-04-26T19:45:14.734Z,101959.34
2023-04-26T19:47:47.639Z,101956.84
2023-04-26T19:50:16.444Z,101953.34
2023-04-26T19:52:45.504Z,101958.63
2023-04-26T19:55:15.006Z,101951.75
2023-04-26T19:57:43.703Z,101956.94
2023-04-26T20:00:13.432Z,101945.06
2023-04-26T20:02:42.488Z,101955.34
2023-04-26T20:05:12.925Z,101846.03
2023-04-26T20:07:41.840Z,101967.50
2023-04-26T20:10:11.216Z,101934.22
2023-04-26T20:12:40.549Z,101963.38
2023-04-26T20:15:12.117Z,101946.59
2023-04-26T20:17:41.382Z,101964.63
2023-04-26T20:20:12.743Z,101969.84
2023-04-26T20:22:41.963Z,101966.38
2023-04-26T20:25:11.141Z,101976.94
2023-04-26T20:27:39.906Z,101894.00
2023-04-26T20:30:09.927Z,101968.34
2023-04-26T20:32:38.721Z,101963.19
2023-04-26T20:35:08.535Z,101965.81
2023-04-26T20:37:38.709Z,101966.69
2023-04-26T20:40:09.374Z,101964.13
2023-04-26T20:42:40.901Z,101965.88
2023-04-26T20:45:11.028Z,101966.56
2023-04-26T20:47:44.692Z,101965.03
2023-04-26T20:50:13.547Z,101965.94
2023-04-26T20:52:43.659Z,101964.25
2023-04-26T20:55:12.456Z,101971.25
2023-04-26T20:57:41.863Z,101968.69
2023-04-26T21:00:11.594Z,101969.59
2023-04-26T21:02:41.082Z,101970.47
2023-04-26T21:05:10.933Z,101977.38
2023-04-26T21:07:39.647Z,101965.28
2023-04-26T21:10:11.027Z,101970.44
2023-04-26T21:12:41.757Z,101965.28
2023-04-26T21:15:11.425Z,101963.59
2023-04-26T21:17:41.048Z,101964.53
2023-04-26T21:20:11.871Z,101970.59
2023-04-26T21:22:40.935Z,101968.94
2023-04-26T21:25:13.719Z,101968.13
2023-04-26T21:27:42.476Z,101971.63
2023-04-26T21:30:12.468Z,101975.16
2023-04-26T21:32:41.904Z,101965.81
2023-04-26T21:35:11.507Z,101974.47
2023-04-26T21:37:40.282Z,101977.06
2023-04-26T21:40:11.775Z,101969.34
2023-04-26T21:42:40.704Z,101973.66
2023-04-26T21:45:11.407Z,101973.72
2023-04-26T21:47:40.176Z,101978.94
2023-04-26T21:50:14.233Z,101975.44
2023-04-26T21:52:43.107Z,101976.31
2023-04-26T21:55:14.441Z,101974.56
2023-04-26T21:57:45.922Z,101948.97
2023-04-26T22:00:15.244Z,101969.47
2023-04-26T22:02:44.350Z,101781.34
2023-04-26T22:05:14.418Z,101978.13
2023-04-26T22:07:43.978Z,101963.66
2023-04-26T22:10:16.970Z,101962.03
2023-04-26T22:12:49.740Z,101974.00
2023-04-26T22:15:20.124Z,101986.13
2023-04-26T22:17:49.462Z,101975.78
2023-04-26T22:20:19.127Z,101980.97
2023-04-26T22:22:49.056Z,101981.03
2023-04-26T22:25:20.658Z,101980.19
2023-04-26T22:27:51.043Z,101963.94
2023-04-26T22:30:26.030Z,101970.78
2023-04-26T22:32:59.898Z,101982.03
2023-04-26T22:35:30.722Z,101983.00
2023-04-26T22:38:37.614Z,101985.66
2023-04-26T22:41:07.778Z,101986.50
2023-04-26T22:43:36.699Z,101984.78
2023-04-26T22:46:07.771Z,101980.50
2023-04-26T22:48:36.531Z,101985.66
2023-04-26T22:51:05.431Z,101986.56
2023-04-26T22:53:34.260Z,101982.31
2023-04-26T22:56:03.143Z,101992.59
2023-04-26T22:58:33.259Z,101994.34
2023-04-26T23:01:02.049Z,101996.06
2023-04-26T23:03:31.090Z,101994.34
2023-04-26T23:05:59.931Z,101996.88
2023-04-26T23:08:28.715Z,101977.28
2023-04-26T23:10:57.535Z,101991.84
2023-04-26T23:13:26.658Z,102004.81
2023-04-26T23:15:57.064Z,102009.16
2023-04-26T23:18:26.650Z,102009.19
2023-04-26T23:20:57.615Z,102006.59
2023-04-26T23:23:26.364Z,101896.16
2023-04-26T23:25:55.195Z,102003.22
2023-04-26T23:28:23.941Z,102003.25
2023-04-26T23:30:52.727Z,102018.78
2023-04-26T23:33:25.475Z,102020.50
2023-04-26T23:35:56.026Z,102025.69
2023-04-26T23:38:24.667Z,102022.28
2023-04-26T23:40:53.373Z,102029.19
2023-04-26T23:43:22.089Z,102025.75
2023-04-26T23:45:50.804Z,102012.94
2023-04-26T23:48:19.537Z,102035.25
2023-04-26T23:50:49.589Z,102010.34
2023-04-26T23:53:18.323Z,102027.47
2023-04-26T23:55:47.378Z,102042.97
2023-04-26T23:58:16.157Z,102050.72
